Time;durP1;ratioP1;P1;durP2;ratioP2;P2;SDS_P1;SDS_P2;PMS_P1;PMS_P2;Temp;Humidity;BMP_temperature;BMP_pressure;BME280_temperature;BME280_humidity;BME280_pressure;Samples;Min_cycle;Max_cycle;Signal;HPM_P1;HPM_P2
2022/05/04 00:02:17;;;;;;;6.20;1.30;;;10.30;74.30;;;;;;5051402;28;20033;-67
2022/05/04 00:04:43;;;;;;;3.72;1.30;;;10.30;74.40;;;;;;5056077;28;20028;-67
2022/05/04 00:07:09;;;;;;;6.60;1.60;;;10.30;74.40;;;;;;5055092;28;20462;-67
2022/05/04 00:09:34;;;;;;;2.85;1.38;;;10.30;74.50;;;;;;5054112;28;20035;-67
2022/05/04 00:12:00;;;;;;;6.15;1.63;;;10.30;74.40;;;;;;5051130;28;20024;-67
2022/05/04 00:14:25;;;;;;;6.03;1.33;;;10.30;74.60;;;;;;5047878;28;20029;-67
2022/05/04 00:16:52;;;;;;;7.07;1.95;;;10.30;74.60;;;;;;5050853;28;20025;-67
2022/05/04 00:19:18;;;;;;;4.65;1.55;;;10.30;74.70;;;;;;5053185;28;20049;-67
2022/05/04 00:21:43;;;;;;;4.57;1.58;;;10.20;74.90;;;;;;5056144;28;20387;-67
2022/05/04 00:24:09;;;;;;;3.63;1.60;;;10.20;75.10;;;;;;5052223;28;20103;-67
2022/05/04 00:26:35;;;;;;;4.70;1.83;;;10.20;75.20;;;;;;5051891;28;20033;-67
2022/05/04 00:29:01;;;;;;;4.15;1.73;;;10.20;75.20;;;;;;5056036;28;20094;-67
2022/05/04 00:31:26;;;;;;;5.35;1.58;;;10.20;75.20;;;;;;5054545;28;20045;-67
2022/05/04 00:33:52;;;;;;;4.60;1.70;;;10.20;75.20;;;;;;5054030;28;20057;-67
2022/05/04 00:36:17;;;;;;;4.32;1.70;;;10.20;75.30;;;;;;5053650;28;20053;-66
2022/05/04 00:38:43;;;;;;;4.55;1.40;;;10.10;75.30;;;;;;5058766;28;20395;-67
2022/05/04 00:41:09;;;;;;;4.13;1.60;;;10.20;75.30;;;;;;5056125;28;20373;-67
2022/05/04 00:43:34;;;;;;;4.72;1.75;;;10.10;75.20;;;;;;5050691;28;20013;-66
2022/05/04 00:46:00;;;;;;;4.95;1.63;;;10.20;75.30;;;;;;5050677;28;20435;-67
2022/05/04 00:48:25;;;;;;;2.85;1.40;;;10.10;75.30;;;;;;5059843;28;20027;-67
2022/05/04 00:50:51;;;;;;;5.25;1.60;;;10.20;76.00;;;;;;5057933;28;20439;-66
2022/05/04 00:53:19;;;;;;;4.03;1.45;;;10.20;75.30;;;;;;5050481;28;20029;-66
2022/05/04 00:55:46;;;;;;;3.70;1.20;;;10.20;75.30;;;;;;5047728;28;20051;-66
2022/05/04 01:01:00;;;;;;;4.15;1.52;;;10.10;75.30;;;;;;5050158;28;20071;-67
2022/05/04 01:03:26;;;;;;;5.75;1.45;;;10.10;75.30;;;;;;5054048;28;20333;-66
2022/05/04 01:05:51;;;;;;;3.97;1.30;;;10.10;75.30;;;;;;5057772;28;20043;-67
2022/05/04 01:08:17;;;;;;;3.10;1.50;;;10.10;75.20;;;;;;5050173;28;20116;-67
2022/05/04 01:10:42;;;;;;;3.75;1.27;;;10.10;75.20;;;;;;5050121;28;20180;-67
2022/05/04 01:13:09;;;;;;;3.75;1.45;;;10.10;75.20;;;;;;5053622;28;20017;-67
2022/05/04 01:15:35;;;;;;;6.00;1.80;;;10.10;75.20;;;;;;5059758;28;20055;-67
2022/05/04 01:18:00;;;;;;;4.50;1.70;;;10.10;75.20;;;;;;5054321;28;20049;-67
2022/05/04 01:20:26;;;;;;;3.33;1.50;;;10.10;75.30;;;;;;5060112;28;20036;-67
2022/05/04 01:22:51;;;;;;;6.30;1.55;;;10.00;75.20;;;;;;5051416;28;20035;-67
2022/05/04 01:25:17;;;;;;;5.57;1.65;;;10.00;75.20;;;;;;5056389;28;20072;-66
2022/05/04 01:27:42;;;;;;;4.43;1.60;;;10.00;75.20;;;;;;5056570;28;20112;-67
2022/05/04 01:30:08;;;;;;;2.40;1.20;;;10.00;75.30;;;;;;5055761;28;20096;-67
2022/05/04 01:32:34;;;;;;;5.90;2.20;;;10.00;75.30;;;;;;5053521;28;20035;-67
2022/05/04 01:34:59;;;;;;;3.75;1.25;;;10.00;75.40;;;;;;5063635;28;20032;-67
2022/05/04 01:37:25;;;;;;;4.85;1.60;;;10.00;75.30;;;;;;5053472;28;20025;-67
2022/05/04 01:39:51;;;;;;;4.55;1.80;;;10.00;75.40;;;;;;5060594;28;20060;-67
2022/05/04 01:42:16;;;;;;;5.88;1.63;;;10.00;75.40;;;;;;5063174;28;20506;-67
2022/05/04 01:44:43;;;;;;;6.95;2.33;;;9.90;75.40;;;;;;5071186;28;20047;-67
2022/05/04 01:47:10;;;;;;;4.50;1.45;;;9.90;75.60;;;;;;5053305;28;20045;-67
2022/05/04 01:49:36;;;;;;;5.53;1.65;;;9.90;75.60;;;;;;5053314;28;20029;-67
2022/05/04 01:52:02;;;;;;;3.80;1.63;;;9.90;75.60;;;;;;5051944;28;20029;-67
2022/05/04 01:54:28;;;;;;;4.50;1.50;;;10.00;75.60;;;;;;5056797;28;20029;-67
2022/05/04 01:56:54;;;;;;;5.35;2.22;;;10.00;75.50;;;;;;5053700;28;20424;-67
2022/05/04 01:59:20;;;;;;;4.65;1.42;;;9.90;75.50;;;;;;5051331;28;20040;-66
2022/05/04 02:01:45;;;;;;;3.63;1.40;;;9.90;75.50;;;;;;5050537;28;20480;-67
2022/05/04 02:04:12;;;;;;;3.58;1.10;;;9.90;75.50;;;;;;5056232;28;20131;-67
2022/05/04 02:06:38;;;;;;;5.80;1.63;;;9.90;75.40;;;;;;5065352;28;20033;-67
2022/05/04 02:09:04;;;;;;;3.50;1.45;;;9.90;75.30;;;;;;5059191;28;20032;-67
2022/05/04 02:11:32;;;;;;;4.28;1.25;;;9.90;75.40;;;;;;5051335;28;20021;-67
2022/05/04 02:14:01;;;;;;;5.10;1.10;;;9.90;75.40;;;;;;5054056;28;20031;-67
2022/05/04 02:16:27;;;;;;;2.60;1.10;;;9.90;75.30;;;;;;5052876;28;20044;-67
2022/05/04 02:18:52;;;;;;;3.83;1.13;;;10.00;75.30;;;;;;5054022;28;20614;-67
2022/05/04 02:21:18;;;;;;;3.55;1.73;;;9.90;75.30;;;;;;5056554;28;20024;-66
2022/05/04 02:23:44;;;;;;;5.28;1.40;;;9.80;75.50;;;;;;5051215;28;20063;-66
2022/05/04 02:26:10;;;;;;;3.40;1.70;;;9.80;75.60;;;;;;5064721;28;20550;-67
2022/05/04 02:28:35;;;;;;;3.58;1.00;;;9.80;75.60;;;;;;5055215;28;20029;-67
2022/05/04 02:31:01;;;;;;;4.63;1.45;;;9.80;75.60;;;;;;5052357;28;20051;-66
2022/05/04 02:33:27;;;;;;;3.55;1.10;;;9.80;75.60;;;;;;5049985;28;20047;-66
2022/05/04 02:38:36;;;;;;;5.32;1.58;;;9.80;75.50;;;;;;5055765;28;20040;-66
2022/05/04 02:41:02;;;;;;;4.65;1.45;;;9.80;75.70;;;;;;5058411;28;20033;-67
2022/05/04 02:43:28;;;;;;;4.70;1.45;;;9.80;75.80;;;;;;5057795;28;20021;-66
2022/05/04 02:45:57;;;;;;;5.53;1.50;;;9.80;76.00;;;;;;5054398;28;20028;-66
2022/05/04 02:48:23;;;;;;;4.40;1.58;;;9.70;76.00;;;;;;5058238;28;20036;-66
2022/05/04 02:50:48;;;;;;;4.78;2.03;;;9.70;76.00;;;;;;5057252;28;20029;-67
2022/05/04 02:53:14;;;;;;;4.00;1.50;;;9.70;76.00;;;;;;5070276;28;20016;-66
2022/05/04 02:55:39;;;;;;;4.35;1.77;;;9.70;76.10;;;;;;5054846;28;20055;-67
2022/05/04 02:58:05;;;;;;;5.32;1.75;;;9.70;76.20;;;;;;5060029;28;20059;-66
2022/05/04 03:00:31;;;;;;;4.72;2.10;;;9.70;76.30;;;;;;5054813;28;20047;-67
2022/05/04 03:02:56;;;;;;;5.25;1.40;;;9.60;76.40;;;;;;5053989;28;20032;-66
2022/05/04 03:05:23;;;;;;;4.05;1.30;;;9.60;76.30;;;;;;5054924;28;20020;-66
2022/05/04 03:07:49;;;;;;;8.60;2.00;;;9.60;76.30;;;;;;5054419;28;20021;-67
2022/05/04 03:10:14;;;;;;;7.32;2.00;;;9.60;76.50;;;;;;5054823;28;20028;-66
2022/05/04 03:12:40;;;;;;;5.55;1.40;;;9.60;76.60;;;;;;5059708;28;20088;-66
2022/05/04 03:15:06;;;;;;;5.60;1.77;;;9.60;76.60;;;;;;5046731;28;20048;-66
2022/05/04 03:17:32;;;;;;;6.53;1.85;;;9.60;76.70;;;;;;5055463;28;20025;-65
2022/05/04 03:19:58;;;;;;;4.22;1.52;;;9.60;76.80;;;;;;5059349;28;20053;-66
2022/05/04 03:22:25;;;;;;;5.65;1.90;;;9.60;76.60;;;;;;5054495;28;20059;-67
2022/05/04 03:24:51;;;;;;;2.30;1.30;;;9.50;76.60;;;;;;5059521;28;20040;-67
2022/05/04 03:27:16;;;;;;;3.58;1.50;;;9.50;76.50;;;;;;5050897;28;20033;-66
2022/05/04 03:29:42;;;;;;;5.53;1.70;;;9.50;76.50;;;;;;5051776;28;20040;-66
2022/05/04 03:32:08;;;;;;;4.60;1.48;;;9.50;76.60;;;;;;5054263;28;20023;-66
2022/05/04 03:34:34;;;;;;;5.63;1.63;;;9.50;76.60;;;;;;5053778;28;20489;-66
2022/05/04 03:37:00;;;;;;;3.72;1.20;;;9.50;76.70;;;;;;5077522;28;20016;-66
2022/05/04 03:39:26;;;;;;;5.97;2.00;;;9.50;76.80;;;;;;5056758;28;20074;-66
2022/05/04 03:41:52;;;;;;;2.97;1.30;;;9.40;76.80;;;;;;5051326;28;20451;-66
2022/05/04 03:44:17;;;;;;;3.55;1.20;;;9.40;76.80;;;;;;5056272;28;20048;-66
2022/05/04 03:46:48;;;;;;;4.25;1.20;;;9.40;76.90;;;;;;5057128;28;20025;-66
2022/05/04 03:49:16;;;;;;;2.63;1.05;;;9.40;76.90;;;;;;5056976;28;20419;-67
2022/05/04 03:51:42;;;;;;;4.43;1.10;;;9.40;76.90;;;;;;5051263;28;20639;-67
2022/05/04 03:54:08;;;;;;;5.72;1.95;;;9.40;76.90;;;;;;5054187;28;20481;-66
2022/05/04 03:56:34;;;;;;;3.78;1.27;;;9.40;77.00;;;;;;5054289;28;20025;-66
2022/05/04 03:59:01;;;;;;;3.95;1.48;;;9.40;77.00;;;;;;5050710;28;20023;-66
2022/05/04 04:01:26;;;;;;;5.88;1.80;;;9.30;77.00;;;;;;5052171;28;20443;-66
2022/05/04 04:03:52;;;;;;;4.75;1.25;;;9.30;77.00;;;;;;5055502;28;20021;-66
2022/05/04 04:06:17;;;;;;;7.30;2.05;;;9.30;77.10;;;;;;5056206;28;20044;-66
2022/05/04 04:08:43;;;;;;;5.35;1.60;;;9.30;77.10;;;;;;5048072;28;20117;-66
2022/05/04 04:11:10;;;;;;;4.88;2.03;;;9.20;77.10;;;;;;5056450;28;20091;-66
2022/05/04 04:13:37;;;;;;;4.20;1.38;;;9.20;77.40;;;;;;5053656;28;20021;-66
2022/05/04 04:16:02;;;;;;;5.20;1.45;;;9.20;77.50;;;;;;5053485;28;20051;-67
2022/05/04 04:18:28;;;;;;;5.70;1.33;;;9.10;77.60;;;;;;5050743;28;20050;-66
2022/05/04 04:23:39;;;;;;;4.28;1.67;;;9.10;77.80;;;;;;5053861;28;20036;-66
2022/05/04 04:26:06;;;;;;;6.30;1.67;;;9.00;77.80;;;;;;5056016;28;20092;-66
2022/05/04 04:28:34;;;;;;;6.15;1.85;;;9.00;77.80;;;;;;5052222;28;20017;-66
2022/05/04 04:31:00;;;;;;;5.05;1.50;;;9.00;77.80;;;;;;5054460;28;20066;-66
2022/05/04 04:33:26;;;;;;;3.78;1.50;;;8.90;77.90;;;;;;5053784;28;20025;-67
2022/05/04 04:35:53;;;;;;;4.07;1.50;;;8.90;77.90;;;;;;5051025;28;20018;-66
2022/05/04 04:38:18;;;;;;;3.60;1.45;;;8.90;78.00;;;;;;5054665;28;20028;-67
2022/05/04 04:40:44;;;;;;;3.35;1.17;;;8.90;78.00;;;;;;5053154;28;20035;-66
2022/05/04 04:43:10;;;;;;;4.28;1.42;;;8.90;78.00;;;;;;5058861;28;20365;-66
2022/05/04 04:45:36;;;;;;;4.30;1.52;;;8.90;78.00;;;;;;5055220;28;20118;-66
2022/05/04 04:48:01;;;;;;;3.45;1.30;;;8.90;77.80;;;;;;5057330;28;20494;-66
2022/05/04 04:50:27;;;;;;;2.95;1.23;;;8.90;77.80;;;;;;5057163;28;20025;-67
2022/05/04 04:52:53;;;;;;;6.38;1.52;;;8.90;77.70;;;;;;5057410;28;20035;-66
2022/05/04 04:55:18;;;;;;;3.00;1.20;;;8.90;77.60;;;;;;5053844;28;20033;-66
2022/05/04 04:57:44;;;;;;;4.68;1.48;;;8.90;77.60;;;;;;5057496;28;20104;-66
2022/05/04 05:00:11;;;;;;;3.42;1.63;;;8.90;77.70;;;;;;5074022;28;20013;-66
2022/05/04 05:02:37;;;;;;;4.10;1.20;;;8.90;77.70;;;;;;5073825;28;20447;-66
2022/05/04 05:05:03;;;;;;;8.55;2.75;;;8.80;77.70;;;;;;5072009;28;20079;-66
2022/05/04 05:07:30;;;;;;;7.82;1.95;;;8.80;77.80;;;;;;5070453;28;20060;-66
2022/05/04 05:09:56;;;;;;;3.13;1.38;;;8.80;77.80;;;;;;5054815;28;20155;-66
2022/05/04 05:12:22;;;;;;;4.38;1.67;;;8.80;77.90;;;;;;5055137;28;20029;-66
2022/05/04 05:17:34;;;;;;;4.82;1.50;;;8.80;77.80;;;;;;5055404;28;20451;-66
2022/05/04 05:20:01;;;;;;;4.07;1.30;;;8.90;77.90;;;;;;5055025;28;20033;-66
2022/05/04 05:22:26;;;;;;;3.20;1.40;;;8.90;77.80;;;;;;5055024;28;20053;-66
2022/05/04 05:24:52;;;;;;;5.70;1.70;;;8.90;77.70;;;;;;5054968;28;20079;-66
2022/05/04 05:27:17;;;;;;;5.68;1.65;;;8.80;77.60;;;;;;5055048;28;20056;-66
2022/05/04 05:29:43;;;;;;;6.05;1.80;;;8.80;77.70;;;;;;5054846;28;20040;-66
2022/05/04 05:32:08;;;;;;;6.30;1.70;;;8.90;77.90;;;;;;5055114;28;20028;-66
2022/05/04 05:34:34;;;;;;;5.65;1.50;;;8.90;78.10;;;;;;5054920;28;20069;-66
2022/05/04 05:37:01;;;;;;;3.88;1.58;;;8.90;78.10;;;;;;5054545;28;20108;-66
2022/05/04 05:39:26;;;;;;;4.82;1.58;;;8.90;78.00;;;;;;5054894;28;20112;-66
2022/05/04 05:41:52;;;;;;;4.05;1.70;;;9.00;78.10;;;;;;5054830;28;20528;-66
2022/05/04 05:44:18;;;;;;;5.63;2.03;;;9.00;78.10;;;;;;5053755;28;20540;-66
2022/05/04 05:46:43;;;;;;;8.13;1.95;;;9.00;78.10;;;;;;5054708;28;20025;-66
2022/05/04 05:49:09;;;;;;;5.68;2.28;;;9.00;78.00;;;;;;5054695;28;20079;-66
2022/05/04 05:51:34;;;;;;;3.90;2.35;;;9.00;78.10;;;;;;5054555;28;20112;-66
2022/05/04 05:54:00;;;;;;;10.80;3.58;;;9.00;78.30;;;;;;5054370;28;20100;-66
2022/05/04 05:56:25;;;;;;;5.97;2.55;;;9.00;78.60;;;;;;5054513;28;20021;-66
2022/05/04 05:58:51;;;;;;;6.50;2.17;;;9.00;78.70;;;;;;5052826;28;20103;-66
2022/05/04 06:01:16;;;;;;;7.38;2.50;;;9.00;78.80;;;;;;5054356;28;20454;-66
2022/05/04 06:03:42;;;;;;;6.07;2.03;;;9.00;78.70;;;;;;5054514;28;20021;-66
2022/05/04 06:06:08;;;;;;;8.57;2.90;;;9.00;78.70;;;;;;5054448;28;20024;-66
2022/05/04 06:08:34;;;;;;;8.65;2.80;;;9.10;78.70;;;;;;5052886;28;20029;-66
2022/05/04 06:11:00;;;;;;;9.52;2.72;;;9.10;78.70;;;;;;5054091;28;20032;-66
2022/05/04 06:13:25;;;;;;;5.93;1.90;;;9.10;78.70;;;;;;5054122;28;20421;-66
2022/05/04 06:15:51;;;;;;;6.53;2.20;;;9.10;78.70;;;;;;5054006;28;20036;-66
2022/05/04 06:18:16;;;;;;;6.70;2.45;;;9.10;78.60;;;;;;5053846;28;20462;-66
2022/05/04 06:20:42;;;;;;;5.72;2.20;;;9.20;78.60;;;;;;5054050;28;20114;-66
2022/05/04 06:23:08;;;;;;;7.30;2.70;;;9.20;78.50;;;;;;5053863;28;20021;-66
2022/05/04 06:25:35;;;;;;;7.90;2.25;;;9.20;78.40;;;;;;5053964;28;20036;-66
2022/05/04 06:28:01;;;;;;;6.82;3.15;;;9.30;78.40;;;;;;5053599;28;20641;-66
2022/05/04 06:35:55;;;;;;;10.40;2.92;;;9.40;78.30;;;;;;5053376;28;20040;-66
2022/05/04 06:38:20;;;;;;;7.45;2.15;;;9.40;78.20;;;;;;5053481;28;20033;-66
2022/05/04 06:40:46;;;;;;;5.68;2.85;;;9.40;77.90;;;;;;5053643;28;20075;-66
2022/05/04 06:43:11;;;;;;;6.97;2.00;;;9.50;77.80;;;;;;5053488;28;20056;-66
2022/05/04 06:45:37;;;;;;;5.68;2.38;;;9.50;77.60;;;;;;5052244;28;20056;-66
2022/05/04 06:48:04;;;;;;;6.75;2.67;;;9.60;77.50;;;;;;5052211;28;20067;-66
2022/05/04 06:50:30;;;;;;;5.97;1.67;;;9.60;77.40;;;;;;5051433;28;20558;-66
2022/05/04 06:52:56;;;;;;;5.05;2.25;;;9.60;77.20;;;;;;5050418;28;20057;-66
2022/05/04 06:55:21;;;;;;;5.28;2.28;;;9.70;77.10;;;;;;5050244;28;20060;-66
2022/05/04 06:57:47;;;;;;;5.68;2.38;;;9.80;77.10;;;;;;5049546;28;20021;-66
2022/05/04 07:00:13;;;;;;;7.03;2.80;;;9.80;76.90;;;;;;5050031;28;20028;-67
2022/05/04 07:02:38;;;;;;;10.45;2.47;;;9.90;76.90;;;;;;5049534;28;20071;-66
2022/05/04 07:05:05;;;;;;;6.40;2.58;;;9.90;76.40;;;;;;5048871;28;20020;-66
2022/05/04 07:07:31;;;;;;;6.28;1.80;;;9.90;76.20;;;;;;5051518;28;20104;-66
2022/05/04 07:09:58;;;;;;;11.05;2.75;;;10.00;76.20;;;;;;5050530;28;20105;-67
2022/05/04 07:12:24;;;;;;;4.07;1.88;;;10.00;75.80;;;;;;5051475;28;20484;-66
2022/05/04 07:14:49;;;;;;;5.57;2.17;;;10.10;75.70;;;;;;5051439;28;20029;-67
2022/05/04 07:17:15;;;;;;;7.03;1.75;;;10.10;75.50;;;;;;5051277;28;20116;-66
2022/05/04 07:19:40;;;;;;;4.75;1.65;;;10.20;75.30;;;;;;5051220;28;20500;-66
2022/05/04 07:22:06;;;;;;;7.25;1.92;;;10.20;75.10;;;;;;5050036;28;20028;-66
2022/05/04 07:24:31;;;;;;;5.28;1.58;;;10.20;74.90;;;;;;5050059;28;20394;-65
2022/05/04 07:26:57;;;;;;;6.78;2.45;;;10.30;74.90;;;;;;5052063;28;20033;-66
2022/05/04 07:29:22;;;;;;;5.38;1.83;;;10.40;74.80;;;;;;5051781;28;20054;-66
2022/05/04 07:31:48;;;;;;;7.15;2.30;;;10.40;74.50;;;;;;5052706;28;20021;-65
2022/05/04 07:34:14;;;;;;;7.90;2.00;;;10.50;74.10;;;;;;5034694;28;20040;-65
2022/05/04 07:36:40;;;;;;;5.53;2.10;;;10.60;73.90;;;;;;5052795;28;20021;-66
2022/05/04 07:39:05;;;;;;;4.55;1.77;;;10.60;73.60;;;;;;5052448;28;20503;-65
2022/05/04 07:44:15;;;;;;;6.47;1.92;;;10.80;73.40;;;;;;5052552;28;20068;-65
2022/05/04 07:46:42;;;;;;;5.00;2.05;;;10.80;73.40;;;;;;5052502;28;20029;-65
2022/05/04 07:49:08;;;;;;;5.88;2.78;;;10.90;73.30;;;;;;5052232;28;20020;-66
2022/05/04 07:51:33;;;;;;;3.72;1.85;;;11.00;73.20;;;;;;5052714;28;20029;-65
2022/05/04 07:53:59;;;;;;;5.43;1.77;;;11.10;73.00;;;;;;5051873;28;20032;-65
2022/05/04 07:56:25;;;;;;;6.90;2.58;;;11.10;72.70;;;;;;5052299;28;20033;-65
2022/05/04 07:58:50;;;;;;;6.10;2.28;;;11.20;72.60;;;;;;5052219;28;20053;-66
2022/05/04 08:04:19;;;;;;;2.60;1.52;;;11.30;72.30;;;;;;5052197;28;20159;-66
2022/05/04 08:06:45;;;;;;;2.80;1.35;;;11.40;72.70;;;;;;5051625;28;20067;-65
2022/05/04 08:09:11;;;;;;;5.47;1.38;;;11.50;72.00;;;;;;5051976;28;20074;-65
2022/05/04 08:11:36;;;;;;;3.58;1.75;;;11.60;72.00;;;;;;5051791;28;20096;-65
2022/05/04 08:14:02;;;;;;;6.90;2.70;;;11.70;71.80;;;;;;5052379;28;20025;-66
2022/05/04 08:16:28;;;;;;;4.90;2.58;;;11.70;70.80;;;;;;5050759;28;20383;-65
2022/05/04 08:18:53;;;;;;;3.78;1.73;;;11.80;71.00;;;;;;5051738;28;20057;-65
2022/05/04 08:21:19;;;;;;;4.78;1.77;;;11.80;71.10;;;;;;5054316;28;20102;-65
2022/05/04 08:23:45;;;;;;;5.78;2.03;;;11.90;71.00;;;;;;5055005;28;20384;-66
2022/05/04 08:26:12;;;;;;;5.65;2.05;;;12.00;70.80;;;;;;5056084;28;20061;-66
2022/05/04 08:28:38;;;;;;;4.65;2.40;;;12.10;70.40;;;;;;5055355;28;20396;-66
2022/05/04 08:31:05;;;;;;;6.70;3.00;;;12.10;70.00;;;;;;5052963;28;20021;-66
2022/05/04 08:33:31;;;;;;;4.05;2.13;;;12.20;69.80;;;;;;5054501;28;20481;-66
2022/05/04 08:35:56;;;;;;;7.25;3.10;;;12.30;69.70;;;;;;5053983;28;20024;-66
2022/05/04 08:38:22;;;;;;;7.22;3.22;;;12.30;69.20;;;;;;5053009;28;20033;-65
2022/05/04 08:40:49;;;;;;;7.40;2.42;;;12.40;69.00;;;;;;5051339;28;20025;-66
2022/05/04 08:43:18;;;;;;;4.28;2.63;;;12.40;69.10;;;;;;5054117;28;20078;-66
2022/05/04 08:45:48;;;;;;;5.10;2.17;;;12.60;69.00;;;;;;5061230;28;20021;-66
2022/05/04 08:48:14;;;;;;;5.50;2.70;;;12.60;68.80;;;;;;5055847;28;20025;-66
2022/05/04 08:50:40;;;;;;;6.63;3.38;;;12.70;68.60;;;;;;5055916;28;20021;-66
2022/05/04 08:53:07;;;;;;;7.32;2.90;;;12.80;68.60;;;;;;5055650;28;20021;-66
2022/05/04 08:55:35;;;;;;;3.45;2.47;;;12.90;68.30;;;;;;5055420;28;20063;-66
2022/05/04 08:58:00;;;;;;;7.15;2.90;;;13.00;68.30;;;;;;5055264;28;20090;-66
2022/05/04 09:00:26;;;;;;;5.63;3.10;;;13.10;68.40;;;;;;5055568;28;20025;-66
2022/05/04 09:02:52;;;;;;;6.10;3.30;;;13.20;68.20;;;;;;5070724;28;20025;-66
2022/05/04 09:05:25;;;;;;;9.15;3.28;;;13.20;67.80;;;;;;5055292;28;20025;-66
2022/05/04 09:07:53;;;;;;;4.97;3.13;;;13.30;67.60;;;;;;5055256;28;20108;-66
2022/05/04 09:10:24;;;;;;;8.02;3.45;;;13.40;67.90;;;;;;5054220;28;20029;-65
2022/05/04 09:12:52;;;;;;;8.30;3.80;;;13.50;67.70;;;;;;5055106;28;20075;-66
2022/05/04 09:15:29;;;;;;;8.07;3.22;;;13.60;67.10;;;;;;5053954;28;20064;-66
2022/05/04 09:18:03;;;;;;;6.03;3.35;;;13.70;66.60;;;;;;5055049;28;20057;-65
2022/05/04 09:20:47;;;;;;;5.65;3.17;;;13.80;66.10;;;;;;5054161;28;20053;-67
2022/05/04 09:23:21;;;;;;;8.38;3.58;;;13.80;65.60;;;;;;5055063;28;20512;-65
2022/05/04 09:25:49;;;;;;;8.02;4.00;;;13.90;65.50;;;;;;5054902;28;20025;-66
2022/05/04 09:28:15;;;;;;;8.02;3.60;;;13.90;65.10;;;;;;5055064;28;20162;-66
2022/05/04 09:30:49;;;;;;;10.90;4.00;;;13.90;64.60;;;;;;5053973;28;20100;-66
2022/05/04 09:33:26;;;;;;;6.22;3.20;;;14.00;64.60;;;;;;5052921;28;20055;-66
2022/05/04 09:35:52;;;;;;;9.75;3.30;;;14.10;64.80;;;;;;5052788;28;20017;-66
2022/05/04 09:46:42;;;;;;;8.25;4.10;;;14.20;64.10;;;;;;5050075;28;20069;-66
2022/05/04 09:49:14;;;;;;;5.63;3.63;;;14.30;63.90;;;;;;5052736;28;20036;-66
2022/05/04 09:51:42;;;;;;;8.25;3.88;;;14.40;63.90;;;;;;5052882;28;20060;-66
2022/05/04 09:54:18;;;;;;;6.93;3.65;;;14.60;63.30;;;;;;5052659;28;20017;-66
2022/05/04 09:56:49;;;;;;;9.45;4.65;;;14.70;62.90;;;;;;5052604;28;20021;-66
2022/05/04 09:59:17;;;;;;;9.68;4.05;;;14.80;62.20;;;;;;5052801;28;20056;-66
2022/05/04 10:01:43;;;;;;;9.60;4.63;;;14.80;61.90;;;;;;5052638;28;20025;-65
2022/05/04 10:04:10;;;;;;;6.65;4.07;;;14.90;61.40;;;;;;5052374;28;20021;-66
2022/05/04 10:06:36;;;;;;;6.50;3.70;;;14.90;61.70;;;;;;5052523;28;20045;-66
2022/05/04 10:09:03;;;;;;;5.82;3.80;;;15.00;61.60;;;;;;5052303;28;20029;-66
2022/05/04 10:11:30;;;;;;;4.75;2.90;;;15.10;61.40;;;;;;5052323;28;20094;-65
2022/05/04 10:14:04;;;;;;;5.28;3.00;;;15.10;61.50;;;;;;5052165;28;20123;-66
2022/05/04 10:16:43;;;;;;;8.13;3.42;;;15.30;61.60;;;;;;5051159;28;20532;-65
2022/05/04 10:19:15;;;;;;;8.30;3.25;;;15.40;61.30;;;;;;5051639;28;20057;-66
2022/05/04 10:21:43;;;;;;;6.40;3.95;;;15.50;61.30;;;;;;5052430;28;20044;-66
2022/05/04 10:24:10;;;;;;;7.32;4.43;;;15.60;60.40;;;;;;5050776;28;20036;-66
2022/05/04 10:26:37;;;;;;;6.28;4.50;;;15.60;59.80;;;;;;5053084;28;20017;-66
2022/05/04 10:32:32;;;;;;;6.30;4.47;;;15.80;59.50;;;;;;5053859;28;20032;-66
2022/05/04 10:35:20;;;;;;;7.10;3.50;;;15.90;59.10;;;;;;5053451;28;20021;-66
2022/05/04 10:38:18;;;;;;;4.78;3.00;;;16.00;58.80;;;;;;5053614;28;20021;-66
2022/05/04 10:41:02;;;;;;;4.57;2.47;;;16.10;58.70;;;;;;5043710;28;20041;-65
2022/05/04 10:43:38;;;;;;;6.25;2.90;;;16.20;59.00;;;;;;5048201;28;20357;-66
2022/05/04 10:46:11;;;;;;;6.32;3.05;;;16.30;58.80;;;;;;5048669;28;20021;-66
2022/05/04 10:48:41;;;;;;;6.18;3.67;;;16.40;58.00;;;;;;5049184;28;20017;-66
2022/05/04 10:51:30;;;;;;;4.80;3.03;;;16.50;57.10;;;;;;5050023;28;20013;-66
2022/05/04 10:53:58;;;;;;;5.38;3.00;;;16.60;56.80;;;;;;5049535;28;20029;-67
2022/05/04 10:56:26;;;;;;;6.60;3.05;;;16.60;57.00;;;;;;5051384;28;20029;-66
2022/05/04 10:58:52;;;;;;;7.20;3.60;;;16.70;57.00;;;;;;5050485;28;20021;-66
2022/05/04 11:01:18;;;;;;;4.90;2.80;;;16.80;57.10;;;;;;5049777;28;20016;-66
2022/05/04 11:03:58;;;;;;;9.57;3.53;;;16.90;57.30;;;;;;5059208;28;20025;-66
2022/05/04 11:06:41;;;;;;;6.07;3.65;;;17.10;57.00;;;;;;5051340;28;20032;-66
2022/05/04 11:09:14;;;;;;;5.75;3.35;;;17.20;56.40;;;;;;5051150;28;20048;-67
2022/05/04 11:11:44;;;;;;;3.72;2.58;;;17.40;56.40;;;;;;5051623;28;20070;-66
2022/05/04 11:14:11;;;;;;;4.95;3.05;;;17.60;56.30;;;;;;5051426;28;20024;-67
2022/05/04 11:16:38;;;;;;;5.35;3.65;;;17.70;55.90;;;;;;5052200;28;20067;-67
2022/05/04 11:19:04;;;;;;;7.50;4.40;;;17.90;55.60;;;;;;5051860;28;20037;-66
2022/05/04 11:21:31;;;;;;;4.90;3.60;;;18.10;54.70;;;;;;5052796;28;20037;-66
2022/05/04 11:23:59;;;;;;;7.20;3.97;;;18.20;54.60;;;;;;5066105;28;20028;-66
2022/05/04 11:26:27;;;;;;;4.85;3.00;;;18.10;52.60;;;;;;5051166;28;20151;-66
2022/05/04 11:28:53;;;;;;;5.38;3.60;;;18.20;53.40;;;;;;5050490;28;20055;-67
2022/05/04 11:31:20;;;;;;;7.03;3.17;;;18.40;53.20;;;;;;5052175;28;20473;-67
2022/05/04 11:33:48;;;;;;;6.78;4.20;;;18.50;53.00;;;;;;5051696;28;20385;-67
2022/05/04 11:36:21;;;;;;;4.60;3.10;;;18.70;51.90;;;;;;5052212;28;20021;-66
2022/05/04 11:38:48;;;;;;;5.63;3.25;;;18.90;52.30;;;;;;5052282;28;20392;-66
2022/05/04 11:41:15;;;;;;;7.47;3.65;;;19.00;52.20;;;;;;5052244;28;20031;-66
2022/05/04 11:43:41;;;;;;;6.97;3.20;;;19.10;51.90;;;;;;5052372;28;20495;-66
2022/05/04 11:46:09;;;;;;;6.82;2.80;;;19.30;51.70;;;;;;5067496;28;20025;-66
2022/05/04 11:48:47;;;;;;;4.97;3.22;;;19.50;51.80;;;;;;5052656;28;20033;-66
2022/05/04 11:51:15;;;;;;;5.55;3.35;;;19.70;51.20;;;;;;5052394;28;20017;-66
2022/05/04 11:53:41;;;;;;;8.20;4.07;;;19.80;50.90;;;;;;5052268;28;20075;-66
2022/05/04 11:56:08;;;;;;;4.85;2.50;;;19.90;50.50;;;;;;5051993;28;20255;-66
2022/05/04 11:58:35;;;;;;;4.00;2.92;;;20.10;50.20;;;;;;5052087;28;20035;-66
2022/05/04 12:01:03;;;;;;;3.88;2.67;;;20.20;50.10;;;;;;5051930;28;20029;-67
2022/05/04 12:03:32;;;;;;;5.43;2.83;;;20.50;50.10;;;;;;5052032;28;20079;-67
2022/05/04 12:06:01;;;;;;;4.90;2.70;;;20.70;49.70;;;;;;5050773;28;20495;-66
2022/05/04 12:08:27;;;;;;;5.53;3.40;;;20.90;49.10;;;;;;5051589;28;20021;-66
2022/05/04 12:10:53;;;;;;;6.13;2.80;;;21.10;48.70;;;;;;5051822;28;20468;-66
2022/05/04 12:13:22;;;;;;;6.47;4.00;;;21.30;48.30;;;;;;5051637;28;20029;-67
2022/05/04 12:15:49;;;;;;;6.50;3.15;;;21.40;48.00;;;;;;5051578;28;20461;-66
2022/05/04 12:18:15;;;;;;;3.35;2.30;;;21.60;46.70;;;;;;5051331;28;20061;-66
2022/05/04 12:20:46;;;;;;;3.67;2.50;;;21.70;46.80;;;;;;5051882;28;20058;-66
2022/05/04 12:23:12;;;;;;;5.30;2.83;;;21.90;46.70;;;;;;5051417;28;20116;-66
2022/05/04 12:25:39;;;;;;;6.50;3.20;;;22.00;46.40;;;;;;5051629;28;20527;-67
2022/05/04 12:28:05;;;;;;;5.18;3.28;;;22.20;46.20;;;;;;5050344;28;20054;-67
2022/05/04 12:33:15;;;;;;;4.57;2.42;;;22.50;45.50;;;;;;5052134;28;20036;-67
2022/05/04 12:35:43;;;;;;;5.72;2.83;;;22.60;45.50;;;;;;5049196;28;20025;-66
2022/05/04 12:38:16;;;;;;;4.35;2.92;;;22.70;45.30;;;;;;5049685;28;20096;-67
2022/05/04 12:40:42;;;;;;;5.18;3.90;;;22.80;45.20;;;;;;5049738;28;20066;-67
2022/05/04 12:43:08;;;;;;;5.07;3.50;;;22.70;44.30;;;;;;5050510;28;20396;-66
2022/05/04 12:45:35;;;;;;;6.15;4.15;;;22.80;44.50;;;;;;5051415;28;20029;-67
2022/05/04 12:48:04;;;;;;;4.90;3.53;;;23.10;44.20;;;;;;5050344;28;20032;-66
2022/05/04 12:50:29;;;;;;;4.13;2.72;;;23.10;44.20;;;;;;5049146;28;20021;-67
2022/05/04 12:52:56;;;;;;;4.30;2.60;;;23.30;44.10;;;;;;5050170;28;20035;-67
2022/05/04 12:56:45;;;;;;;4.88;2.85;;;23.40;44.00;;;;;;5049775;28;20017;-67
2022/05/04 12:58:08;;;;;;;4.78;3.20;;;23.50;43.40;;;;;;5049650;28;20495;-66
2022/05/04 13:00:34;;;;;;;4.80;2.50;;;23.70;42.90;;;;;;5050815;28;20029;-67
2022/05/04 13:03:00;;;;;;;6.03;2.78;;;23.80;42.90;;;;;;5047917;28;20104;-67
2022/05/04 13:05:26;;;;;;;5.85;2.95;;;23.90;42.60;;;;;;5048870;28;20025;-67
2022/05/04 13:07:52;;;;;;;5.32;2.85;;;24.00;42.50;;;;;;5060462;28;20114;-66
2022/05/04 13:10:18;;;;;;;4.40;2.88;;;24.10;42.60;;;;;;5053102;28;20025;-67
2022/05/04 13:12:43;;;;;;;7.18;2.58;;;24.30;42.50;;;;;;5053196;28;20035;-67
2022/05/04 13:15:09;;;;;;;5.32;3.22;;;24.50;42.40;;;;;;5053310;28;20025;-66
2022/05/04 13:17:35;;;;;;;6.57;3.13;;;24.60;41.70;;;;;;5052558;28;20446;-66
2022/05/04 13:20:00;;;;;;;7.63;3.65;;;24.80;41.30;;;;;;5052357;28;20418;-67
2022/05/04 13:22:26;;;;;;;6.07;3.50;;;24.90;40.50;;;;;;5052544;28;20063;-66
2022/05/04 13:24:51;;;;;;;4.50;3.05;;;25.00;40.40;;;;;;5052652;28;20067;-67
2022/05/04 13:27:17;;;;;;;4.80;2.83;;;25.10;40.60;;;;;;5052800;28;20029;-67